createdAt,value
2018-02-05T00:01:45.171Z,98.94
2018-02-05T00:04:13.731Z,98.94
2018-02-05T00:06:42.949Z,98.99
2018-02-05T00:09:17.258Z,99.09
2018-02-05T00:11:47.549Z,99.18
2018-02-05T00:14:20.268Z,99.23
2018-02-05T00:16:51.500Z,99.29
2018-02-05T00:19:23.287Z,99.37
2018-02-05T00:21:53.569Z,99.41
2018-02-05T00:24:28.112Z,99.47
2018-02-05T00:26:58.436Z,99.54
2018-02-05T00:29:30.849Z,99.58
2018-02-05T00:31:59.332Z,99.65
2018-02-05T00:34:29.735Z,99.68
2018-02-05T00:37:00.980Z,99.73
2018-02-05T00:39:34.070Z,99.76
2018-02-05T00:42:04.389Z,99.82
2018-02-05T00:44:38.491Z,99.84
2018-02-05T00:49:42.439Z,99.87
2018-02-05T00:52:14.209Z,99.91
2018-02-05T00:54:47.502Z,99.95
2018-02-05T00:57:15.969Z,100.00
2018-02-05T00:59:46.229Z,100.00
2018-02-05T01:02:25.215Z,100.00
2018-02-05T01:05:01.948Z,100.00
2018-02-05T01:07:32.215Z,100.00
2018-02-05T01:10:00.802Z,100.00
2018-02-05T01:12:31.957Z,100.00
2018-02-05T01:15:01.251Z,100.00
2018-02-05T01:17:31.559Z,100.00
2018-02-05T01:20:01.788Z,100.00
2018-02-05T01:22:30.488Z,100.00
2018-02-05T01:25:00.793Z,100.00
2018-02-05T01:27:30.173Z,100.00
2018-02-05T01:29:58.713Z,100.00
2018-02-05T01:32:29.017Z,100.00
2018-02-05T01:35:00.038Z,100.00
2018-02-05T01:37:30.395Z,100.00
2018-02-05T01:40:02.880Z,100.00
2018-02-05T01:42:33.521Z,100.00
2018-02-05T01:45:02.613Z,100.00
2018-02-05T01:47:31.907Z,100.00
2018-02-05T01:50:01.103Z,100.00
2018-02-05T01:52:30.423Z,100.00
2018-02-05T01:54:59.719Z,100.00
2018-02-05T01:57:29.781Z,100.00
2018-02-05T01:59:58.530Z,100.00
2018-02-05T02:02:28.957Z,100.00
2018-02-05T02:04:58.360Z,100.00
2018-02-05T02:07:29.663Z,100.00
2018-02-05T02:09:59.930Z,100.00
2018-02-05T02:12:30.721Z,100.00
2018-02-05T02:15:05.042Z,100.00
2018-02-05T02:17:33.576Z,100.00
2018-02-05T02:20:04.776Z,100.00
2018-02-05T02:22:34.905Z,100.00
2018-02-05T02:25:05.277Z,100.00
2018-02-05T02:27:41.957Z,100.00
2018-02-05T02:30:10.828Z,100.00
2018-02-05T02:32:43.778Z,100.00
2018-02-05T02:35:15.162Z,100.00
2018-02-05T02:37:48.643Z,100.00
2018-02-05T02:40:19.304Z,100.00
2018-02-05T02:42:50.968Z,100.00
2018-02-05T02:45:19.953Z,100.00
2018-02-05T02:47:50.228Z,100.00
2018-02-05T02:50:21.690Z,100.00
2018-02-05T02:52:59.270Z,100.00
2018-02-05T02:55:31.922Z,100.00
2018-02-05T02:58:02.018Z,100.00
2018-02-05T03:00:32.630Z,100.00
2018-02-05T03:03:01.124Z,100.00
2018-02-05T03:05:31.166Z,100.00
2018-02-05T03:08:01.476Z,100.00
2018-02-05T03:10:34.136Z,100.00
2018-02-05T03:13:03.652Z,100.00
2018-02-05T03:15:33.965Z,100.00
2018-02-05T03:18:05.522Z,99.91
2018-02-05T03:20:33.960Z,99.83
2018-02-05T03:23:04.122Z,99.71
2018-02-05T03:25:34.210Z,99.62
2018-02-05T03:28:04.365Z,99.49
2018-02-05T03:30:38.016Z,99.40
2018-02-05T03:35:41.365Z,99.30
2018-02-05T03:38:14.057Z,99.23
2018-02-05T03:40:45.331Z,99.13
2018-02-05T03:43:18.331Z,99.06
2018-02-05T03:45:48.716Z,98.94
2018-02-05T03:48:19.794Z,98.86
2018-02-05T03:50:50.040Z,98.78
2018-02-05T03:53:31.262Z,98.75
2018-02-05T03:56:01.586Z,98.72
2018-02-05T03:58:34.606Z,98.69
2018-02-05T04:01:05.652Z,98.62
2018-02-05T04:03:38.937Z,98.55
2018-02-05T04:06:10.189Z,98.49
2018-02-05T04:08:39.809Z,98.39
2018-02-05T04:11:09.190Z,98.29
2018-02-05T04:13:39.627Z,98.25
2018-02-05T04:16:09.908Z,98.19
2018-02-05T04:18:42.473Z,98.16
2018-02-05T04:21:11.224Z,98.13
2018-02-05T04:23:39.831Z,98.08
2018-02-05T04:26:11.603Z,98.01
2018-02-05T04:28:41.767Z,97.95
2018-02-05T04:31:12.071Z,97.90
2018-02-05T04:33:44.564Z,97.85
2018-02-05T04:36:14.999Z,97.78
2018-02-05T04:38:44.536Z,97.72
2018-02-05T04:41:15.362Z,97.67
2018-02-05T04:43:49.449Z,97.57
2018-02-05T04:46:18.171Z,97.51
2018-02-05T04:48:48.433Z,97.47
2018-02-05T04:51:19.314Z,97.42
2018-02-05T04:53:47.816Z,97.36
2018-02-05T04:56:19.166Z,97.29
2018-02-05T04:58:49.310Z,97.21
2018-02-05T05:01:19.400Z,97.15
2018-02-05T05:03:48.648Z,97.11
2018-02-05T05:06:17.180Z,97.05
2018-02-05T05:08:47.342Z,96.96
2018-02-05T05:11:18.616Z,96.88
2018-02-05T05:13:49.743Z,96.78
2018-02-05T05:16:20.782Z,96.73
2018-02-05T05:18:50.167Z,96.60
2018-02-05T05:21:19.870Z,96.48
2018-02-05T05:23:51.044Z,96.42
2018-02-05T05:26:22.276Z,96.38
2018-02-05T05:28:51.870Z,96.33
2018-02-05T05:31:28.543Z,96.28
2018-02-05T05:33:57.730Z,96.20
2018-02-05T05:36:26.902Z,96.13
2018-02-05T05:38:55.387Z,96.10
2018-02-05T05:41:25.948Z,96.04
2018-02-05T05:44:07.542Z,95.96
2018-02-05T05:46:36.118Z,95.95
2018-02-05T05:49:06.446Z,95.88
2018-02-05T05:51:45.540Z,95.85
2018-02-05T05:54:35.574Z,95.84
2018-02-05T05:57:06.728Z,95.75
2018-02-05T05:59:37.960Z,95.72
2018-02-05T06:02:07.408Z,95.70
2018-02-05T06:04:38.042Z,95.66
2018-02-05T06:07:08.277Z,95.61
2018-02-05T06:09:38.548Z,95.54
2018-02-05T06:12:08.728Z,95.50
2018-02-05T06:14:38.442Z,95.44
2018-02-05T06:17:07.042Z,95.41
2018-02-05T06:19:38.243Z,95.38
2018-02-05T06:22:08.454Z,95.40
2018-02-05T06:24:37.368Z,95.37
2018-02-05T06:27:08.400Z,95.37
2018-02-05T06:29:36.914Z,95.32
2018-02-05T06:32:07.258Z,95.28
2018-02-05T06:34:38.303Z,95.30
2018-02-05T06:37:08.600Z,95.25
2018-02-05T06:39:39.446Z,95.25
2018-02-05T06:42:11.283Z,95.22
2018-02-05T06:44:41.752Z,95.22
2018-02-05T06:47:11.533Z,95.19
2018-02-05T06:49:40.154Z,95.17
2018-02-05T06:52:20.903Z,95.19
2018-02-05T06:55:01.071Z,95.11
2018-02-05T06:57:31.503Z,95.06
2018-02-05T07:00:02.527Z,95.02
2018-02-05T07:02:38.987Z,94.98
2018-02-05T07:05:14.605Z,94.93
2018-02-05T07:07:45.082Z,94.92
2018-02-05T07:10:15.227Z,94.85
2018-02-05T07:12:46.649Z,94.82
2018-02-05T07:15:15.900Z,94.81
2018-02-05T07:17:46.571Z,94.80
2018-02-05T07:20:17.307Z,94.74
2018-02-05T07:22:48.732Z,94.74
2018-02-05T07:25:17.201Z,94.69
2018-02-05T07:27:46.450Z,94.64
2018-02-05T07:30:16.682Z,94.62
2018-02-05T07:32:47.865Z,94.64
2018-02-05T07:35:20.105Z,94.62
2018-02-05T07:37:50.047Z,94.66
2018-02-05T07:40:21.313Z,94.62
2018-02-05T07:42:52.531Z,94.55
2018-02-05T07:45:22.971Z,94.46
2018-02-05T07:47:54.003Z,94.46
2018-02-05T07:50:24.121Z,94.38
2018-02-05T07:52:54.425Z,94.18
2018-02-05T07:55:28.175Z,94.01
2018-02-05T07:57:59.167Z,93.89
2018-02-05T08:00:34.122Z,93.86
2018-02-05T08:03:04.331Z,93.68
2018-02-05T08:05:36.011Z,93.44
2018-02-05T08:08:04.439Z,93.25
2018-02-05T08:10:34.585Z,93.10
2018-02-05T08:13:04.887Z,92.87
2018-02-05T08:15:36.615Z,92.78
2018-02-05T08:18:05.911Z,92.55
2018-02-05T08:20:36.105Z,92.31
2018-02-05T08:23:04.786Z,92.34
2018-02-05T08:25:34.959Z,92.05
2018-02-05T08:28:03.516Z,91.84
2018-02-05T08:30:36.983Z,91.72
2018-02-05T08:36:00.433Z,91.18
2018-02-05T08:38:39.507Z,91.11
2018-02-05T08:41:10.753Z,91.03
2018-02-05T08:43:39.339Z,90.98
2018-02-05T08:46:09.569Z,90.99
2018-02-05T08:48:42.659Z,90.72
2018-02-05T08:51:13.789Z,90.57
2018-02-05T08:53:44.112Z,90.23
2018-02-05T08:56:13.568Z,90.27
2018-02-05T08:58:43.837Z,90.04
2018-02-05T09:01:16.425Z,90.00
2018-02-05T09:03:52.104Z,89.46
2018-02-05T09:06:22.425Z,88.39
2018-02-05T09:08:56.006Z,88.21
2018-02-05T09:11:26.430Z,87.90
2018-02-05T09:13:57.867Z,87.85
2018-02-05T09:16:27.498Z,87.65
2018-02-05T09:18:56.071Z,86.90
2018-02-05T09:21:25.611Z,85.69
2018-02-05T09:23:55.884Z,83.81
2018-02-05T09:26:26.776Z,84.01
2018-02-05T09:28:55.479Z,82.62
2018-02-05T09:31:43.467Z,82.45
2018-02-05T09:34:13.723Z,82.17
2018-02-05T09:36:45.062Z,80.84
2018-02-05T09:39:24.367Z,81.14
2018-02-05T09:41:55.531Z,80.57
2018-02-05T09:44:24.257Z,79.76
2018-02-05T09:46:53.534Z,79.17
2018-02-05T09:49:28.006Z,79.13
2018-02-05T09:51:58.267Z,79.69
2018-02-05T09:54:30.053Z,78.60
2018-02-05T09:57:00.553Z,79.08
2018-02-05T09:59:31.388Z,78.02
2018-02-05T10:02:03.559Z,77.21
2018-02-05T10:04:34.486Z,77.31
2018-02-05T10:07:05.148Z,76.58
2018-02-05T10:09:37.494Z,76.04
2018-02-05T10:12:08.834Z,76.57
2018-02-05T10:14:40.770Z,76.52
2018-02-05T10:17:12.581Z,76.05
2018-02-05T10:19:41.568Z,76.55
2018-02-05T10:22:10.583Z,76.65
2018-02-05T10:24:39.267Z,76.44
2018-02-05T10:27:08.056Z,76.90
2018-02-05T10:29:42.642Z,76.78
2018-02-05T10:32:14.633Z,76.76
2018-02-05T10:34:43.968Z,76.66
2018-02-05T10:37:12.640Z,76.85
2018-02-05T10:39:43.034Z,76.39
2018-02-05T10:42:16.558Z,76.77
2018-02-05T10:44:46.990Z,76.85
2018-02-05T10:47:18.036Z,76.69
2018-02-05T10:49:51.660Z,76.58
2018-02-05T10:52:22.582Z,76.68
2018-02-05T10:54:52.222Z,76.38
2018-02-05T10:57:21.436Z,76.68
2018-02-05T10:59:51.726Z,76.84
2018-02-05T11:02:24.994Z,76.90
2018-02-05T11:04:53.602Z,77.28
2018-02-05T11:07:22.085Z,76.56
2018-02-05T11:09:50.574Z,76.42
2018-02-05T11:12:25.276Z,76.36
2018-02-05T11:14:55.524Z,75.91
2018-02-05T11:17:25.018Z,75.75
2018-02-05T11:19:53.554Z,75.48
2018-02-05T11:22:32.231Z,75.51
2018-02-05T11:25:02.419Z,75.93
2018-02-05T11:27:35.619Z,76.22
2018-02-05T11:30:05.670Z,76.21
2018-02-05T11:32:36.862Z,76.02
2018-02-05T11:35:08.039Z,75.26
2018-02-05T11:37:37.502Z,75.15
2018-02-05T11:40:06.158Z,74.95
2018-02-05T11:42:36.496Z,74.31
2018-02-05T11:45:05.984Z,74.00
2018-02-05T11:47:34.569Z,73.84
2018-02-05T11:50:03.144Z,73.18
2018-02-05T11:52:34.861Z,73.17
2018-02-05T11:55:05.124Z,71.87
2018-02-05T11:57:34.761Z,71.86
2018-02-05T12:00:18.068Z,72.17
2018-02-05T12:02:48.497Z,71.39
2018-02-05T12:05:21.280Z,71.20
2018-02-05T12:07:50.586Z,71.48
2018-02-05T12:10:35.421Z,71.10
2018-02-05T12:13:06.309Z,70.77
2018-02-05T12:15:35.528Z,71.33
2018-02-05T12:18:06.540Z,71.60
2018-02-05T12:20:39.014Z,71.54
2018-02-05T12:23:07.696Z,71.75
2018-02-05T12:25:38.028Z,71.21
2018-02-05T12:28:09.072Z,70.34
2018-02-05T12:30:39.214Z,70.77
2018-02-05T12:33:12.487Z,70.29
2018-02-05T12:35:41.228Z,70.34
2018-02-05T12:38:11.493Z,70.07
2018-02-05T12:40:42.632Z,69.93
2018-02-05T12:43:14.036Z,69.57
2018-02-05T12:45:46.060Z,69.26
2018-02-05T12:48:16.398Z,69.67
2018-02-05T12:50:46.735Z,69.91
2018-02-05T12:53:17.070Z,69.76
2018-02-05T12:55:48.489Z,70.13
2018-02-05T12:58:17.824Z,69.66
2018-02-05T13:00:58.983Z,69.37
2018-02-05T13:06:32.605Z,69.32
2018-02-05T13:09:01.263Z,68.77
2018-02-05T13:11:33.083Z,68.90
2018-02-05T13:14:03.220Z,68.22
2018-02-05T13:16:33.655Z,69.21
2018-02-05T13:19:04.710Z,68.89
2018-02-05T13:21:36.793Z,68.78
2018-02-05T13:24:10.435Z,68.69
2018-02-05T13:26:41.117Z,69.22
2018-02-05T13:29:12.318Z,68.74
2018-02-05T13:31:44.280Z,69.40
2018-02-05T13:34:14.524Z,68.89
2018-02-05T13:36:45.587Z,68.82
2018-02-05T13:39:22.977Z,68.20
2018-02-05T13:41:51.973Z,68.04
2018-02-05T13:44:22.133Z,67.93
2018-02-05T13:46:50.731Z,68.31
2018-02-05T13:49:24.147Z,68.40
2018-02-05T13:51:55.665Z,67.80
2018-02-05T13:54:25.155Z,68.20
2018-02-05T13:56:54.352Z,67.75
2018-02-05T13:59:24.735Z,67.99
2018-02-05T14:01:56.219Z,68.44
2018-02-05T14:04:27.266Z,68.43
2018-02-05T14:06:59.841Z,69.00
2018-02-05T14:09:28.433Z,69.98
2018-02-05T14:11:57.639Z,69.77
2018-02-05T14:14:26.324Z,70.29
2018-02-05T14:16:54.900Z,69.12
2018-02-05T14:19:35.872Z,69.51
2018-02-05T14:22:07.061Z,69.45
2018-02-05T14:24:35.709Z,69.03
2018-02-05T14:27:06.046Z,69.57
2018-02-05T14:29:37.182Z,69.88
2018-02-05T14:32:08.102Z,70.25
2018-02-05T14:34:36.693Z,70.18
2018-02-05T14:37:07.875Z,70.39
2018-02-05T14:39:39.509Z,70.45
2018-02-05T14:42:08.725Z,70.27
2018-02-05T14:44:38.981Z,70.39
2018-02-05T14:47:08.443Z,70.63
2018-02-05T14:49:37.037Z,70.90
2018-02-05T14:52:07.344Z,70.97
2018-02-05T14:54:36.767Z,71.29
2018-02-05T14:59:46.387Z,71.45
2018-02-05T15:02:17.425Z,71.25
2018-02-05T15:04:47.690Z,71.37
2018-02-05T15:07:18.725Z,71.48
2018-02-05T15:09:47.338Z,71.79
2018-02-05T15:12:17.539Z,71.51
2018-02-05T15:14:46.170Z,71.79
2018-02-05T15:17:14.810Z,72.10
2018-02-05T15:19:43.309Z,72.50
2018-02-05T15:22:11.992Z,72.65
2018-02-05T15:24:46.705Z,72.68
2018-02-05T15:27:17.039Z,72.54
2018-02-05T15:29:48.080Z,71.99
2018-02-05T15:32:23.324Z,71.78
2018-02-05T15:34:53.456Z,71.65
2018-02-05T15:37:22.131Z,72.01
2018-02-05T15:40:04.970Z,72.17
2018-02-05T15:42:33.644Z,72.57
2018-02-05T15:45:02.323Z,72.90
2018-02-05T15:47:30.880Z,72.86
2018-02-05T15:50:02.120Z,73.01
2018-02-05T15:52:30.772Z,73.09
2018-02-05T15:55:01.040Z,73.38
2018-02-05T15:57:30.402Z,73.58
2018-02-05T15:59:59.168Z,73.93
2018-02-05T16:02:34.817Z,74.21
2018-02-05T16:05:04.520Z,74.22
2018-02-05T16:07:33.116Z,74.42
2018-02-05T16:10:01.698Z,74.45
2018-02-05T16:12:30.290Z,74.89
2018-02-05T16:14:59.075Z,74.69
2018-02-05T16:17:28.675Z,74.87
2018-02-05T16:19:57.193Z,74.90
2018-02-05T16:22:26.077Z,75.00
2018-02-05T16:24:56.433Z,75.13
2018-02-05T16:27:25.943Z,75.47
2018-02-05T16:29:56.253Z,75.42
2018-02-05T16:32:29.198Z,75.47
2018-02-05T16:34:58.608Z,75.40
2018-02-05T16:37:27.303Z,75.39
2018-02-05T16:40:00.662Z,75.48
2018-02-05T16:42:29.496Z,75.51
2018-02-05T16:44:59.853Z,75.68
2018-02-05T16:47:35.779Z,75.59
2018-02-05T16:50:05.486Z,75.78
2018-02-05T16:52:35.869Z,75.67
2018-02-05T16:55:05.343Z,75.67
2018-02-05T16:57:33.965Z,75.91
2018-02-05T17:00:05.078Z,75.82
2018-02-05T17:02:35.663Z,76.12
2018-02-05T17:05:05.918Z,76.09
2018-02-05T17:07:37.767Z,76.32
2018-02-05T17:10:08.122Z,76.48
2018-02-05T17:12:41.713Z,76.72
2018-02-05T17:15:13.856Z,76.73
2018-02-05T17:17:42.981Z,76.83
2018-02-05T17:20:11.541Z,77.03
2018-02-05T17:22:40.022Z,77.18
2018-02-05T17:25:09.345Z,77.37
2018-02-05T17:27:38.022Z,77.58
2018-02-05T17:30:09.886Z,77.82
2018-02-05T17:32:38.567Z,77.81
2018-02-05T17:35:08.919Z,77.97
2018-02-05T17:37:42.735Z,77.97
2018-02-05T17:40:15.887Z,78.24
2018-02-05T17:42:46.195Z,78.41
2018-02-05T17:45:25.650Z,78.56
2018-02-05T17:47:54.332Z,78.74
2018-02-05T17:50:24.631Z,79.26
2018-02-05T17:52:56.450Z,79.50
2018-02-05T17:55:25.969Z,79.50
2018-02-05T17:57:54.620Z,79.33
2018-02-05T18:00:32.333Z,79.49
2018-02-05T18:03:01.748Z,79.59
2018-02-05T18:05:32.251Z,79.62
2018-02-05T18:08:09.977Z,79.77
2018-02-05T18:10:38.630Z,79.90
2018-02-05T18:13:08.936Z,80.02
2018-02-05T18:15:41.597Z,80.24
2018-02-05T18:18:11.027Z,80.36
2018-02-05T18:20:40.475Z,80.54
2018-02-05T18:23:09.973Z,80.56
2018-02-05T18:25:38.551Z,80.65
2018-02-05T18:28:08.985Z,80.60
2018-02-05T18:30:42.509Z,80.70
2018-02-05T18:33:12.857Z,80.63
2018-02-05T18:35:43.039Z,80.54
2018-02-05T18:38:11.714Z,80.55
2018-02-05T18:40:42.007Z,80.52
2018-02-05T18:43:32.548Z,80.24
2018-02-05T18:46:01.837Z,79.81
2018-02-05T18:48:30.994Z,79.65
2018-02-05T18:51:01.232Z,79.42
2018-02-05T18:53:31.059Z,79.05
2018-02-05T18:56:00.419Z,78.30
2018-02-05T18:58:29.047Z,78.16
2018-02-05T19:00:58.556Z,77.80
2018-02-05T19:03:28.761Z,77.61
2018-02-05T19:05:59.569Z,77.70
2018-02-05T19:08:36.769Z,77.68
2018-02-05T19:11:06.280Z,78.01
2018-02-05T19:13:37.766Z,78.15
2018-02-05T19:16:09.006Z,77.99
2018-02-05T19:18:37.902Z,77.91
2018-02-05T19:21:09.239Z,78.00
2018-02-05T19:23:39.364Z,78.11
2018-02-05T19:26:08.194Z,77.98
2018-02-05T19:28:38.727Z,78.06
2018-02-05T19:31:12.835Z,78.09
2018-02-05T19:33:42.136Z,78.18
2018-02-05T19:36:12.267Z,78.42
2018-02-05T19:38:49.208Z,78.62
2018-02-05T19:41:19.083Z,78.93
2018-02-05T19:43:48.038Z,79.11
2018-02-05T19:46:18.326Z,79.32
2018-02-05T19:48:52.421Z,79.58
2018-02-05T19:51:25.749Z,79.72
2018-02-05T19:53:57.212Z,80.14
2018-02-05T19:56:27.768Z,80.11
2018-02-05T20:08:43.307Z,79.42
2018-02-05T20:11:14.518Z,79.48
2018-02-05T20:13:45.054Z,79.47
2018-02-05T20:16:16.249Z,79.50
2018-02-05T20:18:47.030Z,79.57
2018-02-05T20:21:15.972Z,79.53
2018-02-05T20:23:47.402Z,79.43
2018-02-05T20:26:19.881Z,79.53
2018-02-05T20:28:48.515Z,79.45
2018-02-05T20:31:17.412Z,79.48
2018-02-05T20:33:47.131Z,79.54
2018-02-05T20:36:15.962Z,79.56
2018-02-05T20:38:44.688Z,79.64
2018-02-05T20:41:13.351Z,79.74
2018-02-05T20:43:42.038Z,79.56
2018-02-05T20:46:10.933Z,79.67
2018-02-05T20:48:39.608Z,79.42
2018-02-05T20:51:08.208Z,79.53
2018-02-05T20:53:36.792Z,79.62
2018-02-05T20:56:05.483Z,79.62
2018-02-05T20:58:36.614Z,79.79
2018-02-05T21:01:07.635Z,79.63
2018-02-05T21:03:37.898Z,79.50
2018-02-05T21:06:07.519Z,79.61
2018-02-05T21:08:36.075Z,79.55
2018-02-05T21:11:04.840Z,79.45
2018-02-05T21:13:33.332Z,79.40
2018-02-05T21:16:01.942Z,79.59
2018-02-05T21:18:30.630Z,79.61
2018-02-05T21:20:59.998Z,79.59
2018-02-05T21:23:30.263Z,79.70
2018-02-05T21:25:58.957Z,79.78
2018-02-05T21:28:27.536Z,79.85
2018-02-05T21:30:56.103Z,79.74
2018-02-05T21:33:26.525Z,79.83
2018-02-05T21:35:57.588Z,80.08
2018-02-05T21:38:26.087Z,80.01
2018-02-05T21:40:54.763Z,80.05
2018-02-05T21:43:24.984Z,80.04
2018-02-05T21:45:53.577Z,80.20
2018-02-05T21:48:22.023Z,80.11
2018-02-05T21:50:52.336Z,80.12
2018-02-05T21:53:24.655Z,80.03
2018-02-05T21:55:53.856Z,80.14
2018-02-05T21:58:23.936Z,79.98
2018-02-05T22:00:54.421Z,79.88
2018-02-05T22:03:23.810Z,80.02
2018-02-05T22:05:56.232Z,80.01
2018-02-05T22:08:26.507Z,80.02
2018-02-05T22:10:57.666Z,80.07
2018-02-05T22:13:26.457Z,79.97
2018-02-05T22:15:58.030Z,79.90
2018-02-05T22:18:28.656Z,79.95
2018-02-05T22:20:59.042Z,79.95
2018-02-05T22:23:30.396Z,80.05
2018-02-05T22:25:59.934Z,79.93
2018-02-05T22:28:29.022Z,80.04
2018-02-05T22:30:59.582Z,80.20
2018-02-05T22:33:31.442Z,80.20
2018-02-05T22:36:00.656Z,80.15
2018-02-05T22:38:31.836Z,80.21
2018-02-05T22:41:00.428Z,80.17
2018-02-05T22:43:29.047Z,80.26
2018-02-05T22:45:57.607Z,80.38
2018-02-05T22:48:26.107Z,80.41
2018-02-05T22:51:07.166Z,80.39
2018-02-05T22:53:36.582Z,80.54
2018-02-05T22:56:05.039Z,80.43
2018-02-05T22:58:35.222Z,80.52
2018-02-05T23:01:05.464Z,80.59
2018-02-05T23:03:35.832Z,80.62
2018-02-05T23:06:06.068Z,80.64
2018-02-05T23:11:26.250Z,80.69
2018-02-05T23:13:58.521Z,80.71
2018-02-05T23:16:27.011Z,80.67
2018-02-05T23:18:57.279Z,80.76
2018-02-05T23:21:26.520Z,80.81
2018-02-05T23:23:55.015Z,80.84
2018-02-05T23:26:24.115Z,80.89
2018-02-05T23:28:52.592Z,80.82
2018-02-05T23:31:21.083Z,80.91
2018-02-05T23:33:49.769Z,81.01
2018-02-05T23:36:18.509Z,80.98
2018-02-05T23:38:50.621Z,81.01
2018-02-05T23:41:21.565Z,81.06
2018-02-05T23:43:51.784Z,81.05
2018-02-05T23:46:24.551Z,81.25
2018-02-05T23:48:57.235Z,81.14
2018-02-05T23:51:29.289Z,81.28
2018-02-05T23:53:59.474Z,81.27
2018-02-05T23:56:28.023Z,81.48
2018-02-05T23:58:56.614Z,81.52
